Time;durP1;ratioP1;P1;durP2;ratioP2;P2;SDS_P1;SDS_P2;PMS_P1;PMS_P2;Temp;Humidity;BMP_temperature;BMP_pressure;BME280_temperature;BME280_humidity;BME280_pressure;Samples;Min_cycle;Max_cycle;Signal;HPM_P1;HPM_P2
2020/12/11 00:00:33;;;;;;;31.40;14.77;;;;;;;2.44;75.24;99674.86;346228;114;1962016;-75
2020/12/11 00:01:39;;;;;;;32.98;14.22;;;;;;;2.49;74.71;99673.41;315626;116;2232994;-74
2020/12/11 00:02:45;;;;;;;28.59;14.09;;;;;;;2.52;74.55;99677.59;340723;116;1961945;-77
2020/12/11 00:03:50;;;;;;;27.34;13.27;;;;;;;2.53;74.43;99680.09;341635;116;1961983;-75
2020/12/11 00:04:57;;;;;;;28.79;13.71;;;;;;;2.40;74.97;99685.80;340435;116;1962914;-76
2020/12/11 00:06:04;;;;;;;29.19;14.42;;;;;;;2.42;75.20;99669.67;312268;116;2568856;-75
2020/12/11 00:07:10;;;;;;;27.46;14.56;;;;;;;2.45;75.09;99676.52;350280;114;1960982;-76
2020/12/11 00:08:15;;;;;;;28.52;16.24;;;;;;;2.48;74.92;99658.37;342820;117;1962007;-75
2020/12/11 00:09:20;;;;;;;28.21;15.89;;;;;;;2.50;74.88;99674.23;344500;114;1962052;-76
2020/12/11 00:10:28;;;;;;;27.41;14.74;;;;;;;2.49;74.97;99667.21;343078;115;1965032;-76
2020/12/11 00:11:34;;;;;;;28.92;14.23;;;;;;;2.42;75.08;99664.34;345914;115;1960834;-77
2020/12/11 00:12:40;;;;;;;27.83;15.11;;;;;;;2.48;74.98;99665.55;346115;114;1961975;-77
2020/12/11 00:13:46;;;;;;;30.79;15.67;;;;;;;2.50;75.03;99667.07;358885;108;1960849;-74
2020/12/11 00:14:52;;;;;;;25.91;14.09;;;;;;;2.51;74.82;99665.23;316756;108;2873001;-74
2020/12/11 00:16:00;;;;;;;25.57;14.23;;;;;;;2.49;75.13;99661.88;340455;110;1964965;-74
2020/12/11 00:17:05;;;;;;;29.41;14.48;;;;;;;2.52;74.91;99672.27;360156;110;1961940;-73
2020/12/11 00:18:11;;;;;;;30.04;15.15;;;;;;;2.55;74.84;99662.11;330148;108;2582861;-74
2020/12/11 00:19:17;;;;;;;29.10;14.13;;;;;;;2.54;74.78;99665.78;336580;108;1961960;-74
2020/12/11 00:20:24;;;;;;;25.13;13.63;;;;;;;2.56;74.79;99661.11;367079;108;1962921;-73
2020/12/11 00:21:39;;;;;;;26.40;14.25;;;;;;;2.61;74.49;99660.66;366210;108;1962943;-74
2020/12/11 00:22:45;;;;;;;24.41;13.46;;;;;;;2.52;74.53;99661.59;366436;108;1962008;-74
2020/12/11 00:23:51;;;;;;;30.66;14.93;;;;;;;2.49;74.56;99664.55;308706;112;2802031;-75
2020/12/11 00:24:57;;;;;;;29.35;15.38;;;;;;;2.50;74.86;99664.41;366026;108;1961982;-74
2020/12/11 00:26:02;;;;;;;28.45;14.13;;;;;;;2.49;74.86;99669.88;356184;111;1962042;-74
2020/12/11 00:27:09;;;;;;;24.98;14.90;;;;;;;2.51;74.90;99670.56;354820;112;1962045;-74
2020/12/11 00:28:14;;;;;;;27.71;15.82;;;;;;;2.55;74.97;99667.45;355291;111;1962005;-74
2020/12/11 00:29:20;;;;;;;24.68;14.48;;;;;;;2.60;74.62;99672.33;311215;111;2819939;-74
2020/12/11 00:30:27;;;;;;;24.41;13.48;;;;;;;2.63;74.42;99667.51;355186;110;1959689;-73
2020/12/11 00:31:32;;;;;;;26.99;14.01;;;;;;;2.57;74.31;99669.97;358954;112;1964994;-73
2020/12/11 00:32:38;;;;;;;26.96;13.59;;;;;;;2.54;74.28;99665.78;356308;112;1962008;-74
2020/12/11 00:33:44;;;;;;;27.05;13.39;;;;;;;2.58;74.42;99675.13;306355;111;2159907;-74
2020/12/11 00:34:49;;;;;;;25.62;13.88;;;;;;;2.50;74.17;99661.73;324580;111;1963985;-74
2020/12/11 00:35:54;;;;;;;24.34;13.16;;;;;;;2.60;74.03;99661.66;333769;117;1962004;-74
2020/12/11 00:37:00;;;;;;;27.61;14.38;;;;;;;2.58;74.17;99668.97;343782;116;1961990;-75
2020/12/11 00:38:05;;;;;;;23.28;13.52;;;;;;;2.56;74.27;99666.44;346155;116;1962005;-74
2020/12/11 00:39:11;;;;;;;25.87;13.35;;;;;;;2.58;74.32;99671.63;336665;119;1963008;-74
2020/12/11 00:40:17;;;;;;;25.75;13.42;;;;;;;2.57;74.33;99664.64;352163;111;1961956;-74
2020/12/11 00:41:23;;;;;;;27.29;14.52;;;;;;;2.59;74.07;99659.96;302493;116;2751025;-73
2020/12/11 00:42:28;;;;;;;21.56;13.07;;;;;;;2.55;74.14;99661.28;312592;116;1961951;-73
2020/12/11 00:43:33;;;;;;;23.19;13.14;;;;;;;2.58;74.20;99660.97;343045;113;1962018;-74
2020/12/11 00:44:39;;;;;;;24.21;13.18;;;;;;;2.59;74.24;99654.62;353514;113;1961951;-74
2020/12/11 00:45:44;;;;;;;26.02;13.92;;;;;;;2.59;74.10;99663.49;356141;114;1963885;-74
2020/12/11 00:46:51;;;;;;;22.90;13.23;;;;;;;2.55;74.24;99669.28;354606;113;1961886;-74
2020/12/11 00:47:57;;;;;;;25.31;12.89;;;;;;;2.56;74.45;99665.61;317995;113;1961639;-73
2020/12/11 00:49:03;;;;;;;22.72;13.12;;;;;;;2.56;74.36;99668.28;352038;113;1961919;-75
2020/12/11 00:50:08;;;;;;;24.17;13.06;;;;;;;2.55;74.03;99670.11;354695;112;1961920;-73
2020/12/11 00:51:20;;;;;;;24.24;13.48;;;;;;;2.59;73.98;99662.62;354649;112;1961023;-73
2020/12/11 00:52:27;;;;;;;22.32;12.92;;;;;;;2.53;73.98;99666.75;342215;110;1962000;-73
2020/12/11 00:53:32;;;;;;;26.47;14.52;;;;;;;2.53;74.16;99657.92;357658;110;1961961;-74
2020/12/11 00:54:37;;;;;;;23.43;12.72;;;;;;;2.56;74.18;99662.95;349199;113;1963086;-74
2020/12/11 00:55:43;;;;;;;23.22;13.03;;;;;;;2.55;73.91;99656.78;343016;116;1961982;-74
2020/12/11 00:56:50;;;;;;;23.29;12.84;;;;;;;2.60;73.77;99662.48;348573;114;1961975;-74
2020/12/11 00:57:55;;;;;;;21.27;12.79;;;;;;;2.61;74.01;99669.48;318991;112;2649976;-74
2020/12/11 00:59:01;;;;;;;21.72;11.97;;;;;;;2.56;73.81;99669.11;338573;112;1965949;-74
2020/12/11 01:00:09;;;;;;;24.81;13.06;;;;;;;2.62;73.75;99665.02;349572;112;1961973;-74
2020/12/11 01:01:15;;;;;;;22.64;12.70;;;;;;;2.65;73.60;99662.03;312136;113;2702925;-74
2020/12/11 01:02:20;;;;;;;24.36;12.23;;;;;;;2.66;73.50;99662.86;334696;113;1962974;-74
2020/12/11 01:03:26;;;;;;;22.43;11.97;;;;;;;2.73;72.95;99655.92;351047;113;1962937;-75
2020/12/11 01:04:31;;;;;;;22.52;11.66;;;;;;;2.73;73.02;99666.59;352136;114;1961968;-74
2020/12/11 01:05:37;;;;;;;19.11;11.12;;;;;;;2.70;73.11;99657.07;351624;113;1961971;-74
2020/12/11 01:06:44;;;;;;;20.38;11.62;;;;;;;2.73;73.07;99666.59;335890;115;2230941;-74
2020/12/11 01:07:49;;;;;;;21.11;12.22;;;;;;;2.62;73.28;99657.84;324726;113;1961951;-73
2020/12/11 01:08:55;;;;;;;24.66;13.97;;;;;;;2.67;73.11;99654.69;347530;113;1964049;-74
2020/12/11 01:10:01;;;;;;;21.42;11.42;;;;;;;2.65;72.90;99646.03;350875;113;1961979;-74
2020/12/11 01:11:17;;;;;;;21.04;11.98;;;;;;;2.68;73.04;99650.22;353052;113;1961987;-73
2020/12/11 01:12:24;;;;;;;26.60;12.29;;;;;;;2.69;73.07;99655.38;309511;111;2864007;-74
2020/12/11 01:13:29;;;;;;;21.69;12.18;;;;;;;2.62;73.36;99652.52;362007;109;1961954;-74
2020/12/11 01:14:35;;;;;;;21.61;12.24;;;;;;;2.63;73.35;99654.17;367884;109;1962701;-73
2020/12/11 01:15:40;;;;;;;24.20;13.24;;;;;;;2.61;73.62;99655.32;367717;109;1963986;-74
2020/12/11 01:16:48;;;;;;;23.60;12.14;;;;;;;2.63;73.63;99648.84;325993;109;2699059;-73
2020/12/11 01:17:53;;;;;;;22.28;11.49;;;;;;;2.71;73.25;99653.40;334647;112;1961936;-74
2020/12/11 01:18:58;;;;;;;21.45;11.92;;;;;;;2.69;73.66;99658.05;355342;113;1961991;-74
2020/12/11 01:20:05;;;;;;;23.33;12.64;;;;;;;2.71;73.34;99649.91;368189;109;1962041;-74
2020/12/11 01:21:11;;;;;;;18.97;11.29;;;;;;;2.64;73.52;99655.00;369338;109;1962953;-74
2020/12/11 01:22:25;;;;;;;22.29;11.79;;;;;;;2.69;73.38;99655.38;315840;109;2861070;-74
2020/12/11 01:23:31;;;;;;;21.56;11.96;;;;;;;2.67;72.94;99645.86;345938;113;1962126;-74
2020/12/11 01:24:37;;;;;;;21.28;12.72;;;;;;;2.73;73.09;99656.76;319053;116;2448072;-75
2020/12/11 01:25:42;;;;;;;21.31;11.57;;;;;;;2.67;72.97;99649.36;342023;116;1965381;-74
2020/12/11 01:26:50;;;;;;;20.32;11.65;;;;;;;2.71;72.98;99655.23;339483;118;1961954;-75
2020/12/11 01:27:56;;;;;;;20.87;11.90;;;;;;;2.69;72.68;99655.38;317025;116;2464987;-74
2020/12/11 01:29:01;;;;;;;24.64;11.73;;;;;;;2.71;72.83;99656.06;320360;116;1962017;-74
2020/12/11 01:30:07;;;;;;;23.17;11.83;;;;;;;2.68;73.04;99645.72;343639;116;1962044;-74
2020/12/11 01:31:18;;;;;;;22.67;11.33;;;;;;;2.70;73.10;99649.07;345224;116;1962023;-74
2020/12/11 01:32:24;;;;;;;20.12;10.78;;;;;;;2.70;73.31;99651.73;345754;116;1961932;-73
2020/12/11 01:33:45;;;;;;;22.78;11.78;;;;;;;2.70;73.19;99648.20;321991;117;2363129;-74
2020/12/11 01:34:50;;;;;;;22.93;11.04;;;;;;;2.72;73.30;99644.39;324199;111;1961998;-74
2020/12/11 01:35:55;;;;;;;21.96;11.41;;;;;;;2.76;73.12;99645.77;346670;111;1964004;-74
2020/12/11 01:37:03;;;;;;;20.06;10.49;;;;;;;2.77;73.21;99650.10;352077;112;1961896;-73
2020/12/11 01:38:08;;;;;;;21.28;10.87;;;;;;;2.81;73.04;99643.47;353983;114;1962024;-74
2020/12/11 01:39:14;;;;;;;19.01;11.46;;;;;;;2.81;72.86;99640.80;316219;114;2924910;-74
2020/12/11 01:40:20;;;;;;;18.88;10.18;;;;;;;2.78;73.10;99638.45;350905;113;1961970;-73
2020/12/11 01:41:26;;;;;;;20.28;11.16;;;;;;;2.75;73.18;99644.11;349483;114;1962968;-73
2020/12/11 01:42:31;;;;;;;20.55;12.02;;;;;;;2.79;73.07;99637.45;354677;111;1962014;-73
2020/12/11 01:43:37;;;;;;;20.11;11.66;;;;;;;2.76;72.88;99642.27;354802;114;1961863;-73
2020/12/11 01:44:49;;;;;;;21.53;11.92;;;;;;;2.73;72.76;99646.09;308252;114;2826025;-74
2020/12/11 01:45:55;;;;;;;21.46;11.68;;;;;;;2.73;73.18;99637.25;350106;116;1964020;-75
2020/12/11 01:47:01;;;;;;;22.82;11.22;;;;;;;2.76;73.05;99640.44;359814;112;1961952;-74
2020/12/11 01:48:07;;;;;;;22.39;11.78;;;;;;;2.78;73.17;99638.45;357370;112;1963984;-74
2020/12/11 01:49:13;;;;;;;22.46;11.15;;;;;;;2.72;73.05;99625.72;328335;112;2230917;-74
2020/12/11 01:50:21;;;;;;;22.15;12.46;;;;;;;2.81;72.67;99640.80;335156;115;1965008;-75
2020/12/11 01:51:27;;;;;;;22.55;10.74;;;;;;;2.80;72.84;99639.11;351289;114;1961951;-74
2020/12/11 01:52:32;;;;;;;19.64;11.32;;;;;;;2.80;73.04;99635.61;323278;112;2541080;-74
2020/12/11 01:53:43;;;;;;;22.22;11.45;;;;;;;2.79;73.00;99637.45;337800;112;1962931;-74
2020/12/11 01:54:49;;;;;;;17.96;10.31;;;;;;;2.81;73.27;99642.64;357189;112;1962988;-73
2020/12/11 01:55:55;;;;;;;19.37;11.42;;;;;;;2.84;73.07;99640.48;358068;112;1961981;-74
2020/12/11 01:57:06;;;;;;;17.69;11.61;;;;;;;2.83;72.88;99633.48;317476;111;2887805;-73
2020/12/11 01:58:15;;;;;;;18.31;10.44;;;;;;;2.83;72.92;99630.82;344278;110;2266009;-73
2020/12/11 01:59:25;;;;;;;18.91;10.21;;;;;;;2.82;73.01;99633.63;357550;111;1962009;-73
2020/12/11 02:00:34;;;;;;;;;;;;;;;2.84;72.92;99627.15;361865;110;1961933;-73
2020/12/11 02:01:42;;;;;;;20.68;11.13;;;;;;;2.85;72.67;99628.81;360877;109;1961027;-74
2020/12/11 02:02:50;;;;;;;20.33;10.29;;;;;;;2.86;72.54;99627.00;361450;110;1963983;-73
2020/12/11 02:03:56;;;;;;;20.80;10.56;;;;;;;2.89;72.66;99625.86;333063;113;2392965;-73
2020/12/11 02:05:01;;;;;;;25.14;10.70;;;;;;;2.89;72.57;99621.34;343440;110;1961972;-75
2020/12/11 02:06:07;;;;;;;24.32;11.98;;;;;;;2.85;72.65;99622.64;346299;117;1962969;-73
2020/12/11 02:07:12;;;;;;;20.01;10.08;;;;;;;2.88;72.52;99608.16;347076;117;1962014;-74
2020/12/11 02:08:17;;;;;;;20.21;11.60;;;;;;;2.91;72.19;99619.37;345322;117;1961994;-73
2020/12/11 02:09:24;;;;;;;19.60;10.41;;;;;;;2.89;72.14;99617.84;343824;117;1962895;-73
2020/12/11 02:10:31;;;;;;;20.02;10.32;;;;;;;2.85;72.31;99620.81;318683;121;1962025;-73
2020/12/11 02:11:36;;;;;;;20.26;10.17;;;;;;;2.82;72.38;99617.63;343070;115;1961900;-74
2020/12/11 02:12:42;;;;;;;21.59;10.33;;;;;;;2.87;72.24;99612.66;340085;118;1961909;-73
2020/12/11 02:13:48;;;;;;;19.73;11.35;;;;;;;2.89;71.96;99615.19;338735;118;1963041;-74
2020/12/11 02:14:54;;;;;;;18.09;10.43;;;;;;;2.93;71.72;99620.02;298902;119;2718970;-73
2020/12/11 02:15:59;;;;;;;20.54;11.60;;;;;;;2.94;71.55;99613.71;315949;121;1961951;-73
2020/12/11 02:17:07;;;;;;;20.20;10.88;;;;;;;2.95;71.43;99614.54;338397;115;1964990;-74
2020/12/11 02:18:13;;;;;;;23.66;11.01;;;;;;;2.88;71.51;99616.98;342320;118;1964091;-74
2020/12/11 02:19:19;;;;;;;19.95;10.86;;;;;;;2.86;71.67;99622.50;313329;118;1961911;-74
2020/12/11 02:20:24;;;;;;;18.75;10.74;;;;;;;2.84;71.91;99624.48;342035;118;1961458;-74
2020/12/11 02:21:32;;;;;;;17.35;10.90;;;;;;;2.86;71.78;99627.83;339341;119;1961945;-74
2020/12/11 02:22:41;;;;;;;21.42;9.53;;;;;;;2.83;71.70;99632.63;334422;120;1961912;-73
2020/12/11 02:23:45;;;;;;;18.14;9.94;;;;;;;2.84;71.88;99621.81;340767;118;1962067;-74
2020/12/11 02:24:50;;;;;;;17.98;10.91;;;;;;;2.80;71.95;99633.78;341220;119;1962014;-73
2020/12/11 02:25:55;;;;;;;20.10;10.78;;;;;;;2.79;72.04;99624.11;341409;119;1962977;-74
2020/12/11 02:27:03;;;;;;;21.76;12.03;;;;;;;2.78;72.18;99622.45;341005;119;1963981;-74
2020/12/11 02:28:08;;;;;;;21.01;11.55;;;;;;;2.82;72.13;99622.97;331933;119;1961833;-74
2020/12/11 02:29:14;;;;;;;17.96;10.39;;;;;;;2.85;71.95;99625.31;341843;118;1964019;-74
2020/12/11 02:30:21;;;;;;;18.39;10.70;;;;;;;2.83;71.88;99627.29;340789;118;1964022;-74
2020/12/11 02:31:27;;;;;;;17.67;9.81;;;;;;;2.85;71.90;99623.47;309762;118;2903960;-74
2020/12/11 02:32:32;;;;;;;17.84;9.38;;;;;;;2.83;71.48;99621.95;315296;119;1961988;-74
2020/12/11 02:33:38;;;;;;;21.95;10.42;;;;;;;2.82;71.42;99622.97;338910;118;1962900;-73
2020/12/11 02:34:44;;;;;;;18.87;9.92;;;;;;;2.84;71.52;99631.66;341219;119;1961898;-73
2020/12/11 02:35:50;;;;;;;22.01;10.78;;;;;;;2.86;71.43;99627.83;340310;119;1961940;-74
2020/12/11 02:37:01;;;;;;;18.98;10.22;;;;;;;2.85;71.41;99630.64;295912;119;2237016;-74
2020/12/11 02:38:06;;;;;;;18.17;9.22;;;;;;;2.83;71.46;99629.95;310073;119;1961979;-73
2020/12/11 02:39:12;;;;;;;20.94;10.52;;;;;;;2.83;71.44;99628.16;316153;122;1962098;-73
2020/12/11 02:40:17;;;;;;;18.54;10.97;;;;;;;2.85;71.15;99633.31;338810;118;1964064;-74
2020/12/11 02:41:22;;;;;;;19.96;10.68;;;;;;;2.84;71.02;99634.32;331357;121;1961913;-74
2020/12/11 02:42:28;;;;;;;19.43;10.52;;;;;;;2.75;71.21;99630.77;342739;118;1961978;-73
2020/12/11 02:43:37;;;;;;;23.33;9.57;;;;;;;2.76;71.35;99637.77;342844;118;1961951;-73
2020/12/11 02:44:40;;;;;;;18.37;10.19;;;;;;;2.72;71.59;99633.72;289955;121;2079227;-74
2020/12/11 02:45:47;;;;;;;22.64;11.17;;;;;;;2.79;71.28;99628.62;325737;117;1961909;-74
2020/12/11 02:46:54;;;;;;;18.02;10.75;;;;;;;2.80;71.20;99627.61;334492;121;1962004;-74
2020/12/11 02:47:59;;;;;;;20.08;10.98;;;;;;;2.80;71.24;99632.95;327922;118;2236967;-73
2020/12/11 02:49:05;;;;;;;19.91;10.96;;;;;;;2.78;71.44;99632.26;306091;120;1962032;-74
2020/12/11 02:50:11;;;;;;;16.59;9.85;;;;;;;2.78;71.43;99633.13;338485;118;1962027;-74
2020/12/11 02:51:16;;;;;;;21.76;9.83;;;;;;;2.73;71.42;99630.08;340141;119;1961922;-73
2020/12/11 02:52:21;;;;;;;22.12;11.02;;;;;;;2.78;71.27;99629.59;341043;119;1962088;-74
2020/12/11 02:53:27;;;;;;;24.97;12.42;;;;;;;2.75;71.41;99638.77;347887;110;1960746;-74
2020/12/11 02:54:32;;;;;;;20.10;11.17;;;;;;;2.75;71.48;99644.11;351178;115;1963962;-74
2020/12/11 02:55:39;;;;;;;18.38;9.68;;;;;;;2.74;71.43;99641.58;302978;111;2844035;-74
2020/12/11 02:56:44;;;;;;;17.57;10.26;;;;;;;2.79;71.26;99640.12;339215;115;1962052;-74
2020/12/11 02:57:51;;;;;;;18.51;10.56;;;;;;;2.77;71.19;99646.60;352904;112;1961963;-74
2020/12/11 02:58:57;;;;;;;19.06;11.04;;;;;;;2.77;71.38;99639.43;350983;114;1960796;-74
2020/12/11 03:00:03;;;;;;;20.49;10.50;;;;;;;2.77;71.34;99644.77;310259;111;2660763;-77
2020/12/11 03:01:08;;;;;;;19.85;10.03;;;;;;;2.79;71.35;99642.78;346716;113;1961884;-76
2020/12/11 03:02:14;;;;;;;18.93;10.86;;;;;;;2.79;71.21;99648.13;349598;112;1964961;-75
2020/12/11 03:03:19;;;;;;;17.05;9.93;;;;;;;2.78;71.12;99635.79;353767;112;1962019;-76
2020/12/11 03:04:25;;;;;;;18.27;8.86;;;;;;;2.74;71.27;99638.92;352046;114;1961936;-75
2020/12/11 03:05:31;;;;;;;18.11;10.86;;;;;;;2.73;71.69;99637.25;349294;112;1960584;-77
2020/12/11 03:06:37;;;;;;;18.16;9.19;;;;;;;2.72;71.63;99631.05;320916;112;1961976;-76
2020/12/11 03:07:43;;;;;;;18.86;10.62;;;;;;;2.72;71.52;99639.06;354926;114;1963918;-76
2020/12/11 03:08:49;;;;;;;18.73;10.57;;;;;;;2.75;71.34;99632.58;353120;112;1961970;-75
2020/12/11 03:10:04;;;;;;;19.29;9.76;;;;;;;2.73;71.41;99634.59;355292;112;1961898;-75
2020/12/11 03:11:11;;;;;;;20.32;10.90;;;;;;;2.72;71.45;99636.39;303182;115;2865941;-75
2020/12/11 03:12:16;;;;;;;18.58;10.26;;;;;;;2.76;71.41;99629.77;319354;114;1960880;-76
2020/12/11 03:13:22;;;;;;;20.47;10.52;;;;;;;2.81;71.16;99624.80;342498;114;1961973;-76
2020/12/11 03:14:28;;;;;;;17.89;9.06;;;;;;;2.86;70.90;99627.83;344541;116;1962187;-76
2020/12/11 03:15:33;;;;;;;20.23;10.13;;;;;;;2.82;70.96;99631.80;350671;114;1961919;-75
2020/12/11 03:16:40;;;;;;;19.84;10.43;;;;;;;2.84;70.98;99631.66;312335;115;2658994;-76
2020/12/11 03:17:46;;;;;;;18.87;10.58;;;;;;;2.77;71.03;99633.27;347140;113;1961946;-76
2020/12/11 03:18:51;;;;;;;19.27;10.99;;;;;;;2.77;71.28;99628.77;349524;114;1963921;-75
2020/12/11 03:19:57;;;;;;;19.53;10.01;;;;;;;2.76;71.33;99621.77;350877;115;1960912;-75
2020/12/11 03:21:04;;;;;;;18.71;11.40;;;;;;;2.77;71.19;99625.27;351417;115;1960966;-75
2020/12/11 03:22:10;;;;;;;17.91;9.71;;;;;;;2.71;71.28;99632.06;326898;113;2422822;-75
2020/12/11 03:23:15;;;;;;;17.91;10.37;;;;;;;2.75;71.05;99620.10;350646;113;1961878;-75
2020/12/11 03:24:21;;;;;;;21.07;10.36;;;;;;;2.71;71.09;99626.73;350643;114;1960891;-75
2020/12/11 03:25:26;;;;;;;24.58;11.12;;;;;;;2.69;71.39;99634.05;350993;114;1960984;-75
2020/12/11 03:26:33;;;;;;;18.03;10.06;;;;;;;2.72;71.31;99625.72;350876;114;1960814;-75
2020/12/11 03:27:39;;;;;;;18.41;10.44;;;;;;;2.72;71.19;99630.22;316956;114;2621860;-74
2020/12/11 03:28:44;;;;;;;21.39;10.77;;;;;;;2.73;71.30;99630.08;323881;114;1964948;-77
2020/12/11 03:29:57;;;;;;;19.03;10.97;;;;;;;2.72;71.27;99625.72;342998;114;1961940;-76
2020/12/11 03:31:04;;;;;;;20.91;10.81;;;;;;;2.76;71.18;99624.43;348055;115;1962014;-76
2020/12/11 03:32:09;;;;;;;22.08;10.05;;;;;;;2.69;71.18;99622.54;342852;115;1961998;-76
2020/12/11 03:33:15;;;;;;;22.28;11.53;;;;;;;2.74;71.11;99630.91;357312;108;1960754;-74
2020/12/11 03:34:20;;;;;;;26.39;11.61;;;;;;;2.74;71.03;99629.08;362174;111;1962014;-74
2020/12/11 03:35:27;;;;;;;20.11;10.00;;;;;;;2.76;70.71;99629.77;362658;109;1961961;-75
2020/12/11 03:36:33;;;;;;;19.69;11.08;;;;;;;2.73;70.88;99622.08;320328;109;2111550;-75
2020/12/11 03:37:38;;;;;;;19.61;10.44;;;;;;;2.72;71.01;99630.22;340842;108;1962018;-74
2020/12/11 03:38:44;;;;;;;20.74;10.45;;;;;;;2.67;71.25;99632.52;355625;111;1961965;-72
2020/12/11 03:39:50;;;;;;;20.51;10.90;;;;;;;2.67;71.35;99628.02;357139;111;1961978;-75
2020/12/11 03:40:56;;;;;;;21.26;9.49;;;;;;;2.69;71.22;99623.38;355608;113;1962966;-74
2020/12/11 03:42:02;;;;;;;21.61;10.41;;;;;;;2.74;71.07;99622.91;311510;113;2732013;-76
2020/12/11 03:43:07;;;;;;;18.26;9.88;;;;;;;2.78;70.81;99621.59;326366;112;1964004;-75
2020/12/11 03:44:13;;;;;;;19.94;9.36;;;;;;;2.78;70.83;99624.25;334847;118;1962023;-73
2020/12/11 03:45:18;;;;;;;19.72;9.74;;;;;;;2.78;70.73;99630.45;338615;113;1961949;-75
2020/12/11 03:46:25;;;;;;;17.06;8.80;;;;;;;2.78;70.60;99626.92;360581;110;1962023;-75
2020/12/11 03:47:32;;;;;;;18.68;10.83;;;;;;;2.78;70.61;99633.13;311587;109;2119308;-75
2020/12/11 03:48:39;;;;;;;20.59;9.50;;;;;;;2.77;70.49;99630.59;357389;111;1961990;-75
2020/12/11 03:49:45;;;;;;;18.91;9.76;;;;;;;2.76;70.60;99629.77;357751;113;1962002;-75
2020/12/11 03:50:52;;;;;;;18.71;9.98;;;;;;;2.78;70.54;99632.26;360619;109;1961948;-75
2020/12/11 03:51:58;;;;;;;20.70;9.38;;;;;;;2.75;70.38;99635.24;364500;109;1961977;-74
2020/12/11 03:53:04;;;;;;;18.19;9.44;;;;;;;2.65;70.53;99622.03;361612;109;1961991;-74
2020/12/11 03:54:10;;;;;;;18.78;9.96;;;;;;;2.70;70.27;99627.73;316356;109;2761996;-75
2020/12/11 03:55:16;;;;;;;19.25;9.13;;;;;;;2.70;70.22;99632.20;336872;111;1962929;-76
2020/12/11 03:56:21;;;;;;;21.03;9.43;;;;;;;2.66;70.39;99634.36;358943;111;1964952;-75
2020/12/11 03:57:27;;;;;;;17.17;9.47;;;;;;;2.62;70.54;99630.34;362646;109;1962000;-75
2020/12/11 03:58:33;;;;;;;19.16;9.63;;;;;;;2.64;70.42;99626.50;362439;109;1963937;-74
2020/12/11 03:59:39;;;;;;;17.68;9.03;;;;;;;2.64;70.48;99636.34;317666;109;2781927;-73
2020/12/11 04:00:46;;;;;;;17.25;9.40;;;;;;;2.68;70.38;99637.72;359324;109;1965386;-73
2020/12/11 04:01:51;;;;;;;19.15;9.70;;;;;;;2.61;70.44;99637.48;358900;109;1961888;-73
2020/12/11 04:02:56;;;;;;;19.98;10.58;;;;;;;2.57;70.68;99628.14;362980;109;1961945;-74
2020/12/11 04:04:03;;;;;;;18.23;9.31;;;;;;;2.56;70.61;99631.78;354668;111;1961927;-74
2020/12/11 04:05:09;;;;;;;16.32;8.86;;;;;;;2.56;70.54;99630.95;307389;114;2757877;-75
2020/12/11 04:06:18;;;;;;;19.59;9.59;;;;;;;2.56;70.40;99631.78;353799;111;1962933;-74
2020/12/11 04:07:24;;;;;;;19.12;9.97;;;;;;;2.58;70.28;99634.30;309881;112;2226885;-75
2020/12/11 04:08:29;;;;;;;20.14;9.37;;;;;;;2.58;70.25;99635.13;343349;112;1961007;-75
2020/12/11 04:09:34;;;;;;;21.47;10.14;;;;;;;2.56;70.17;99638.95;355940;112;1961957;-74
2020/12/11 04:10:42;;;;;;;17.72;8.94;;;;;;;2.58;70.14;99634.30;352780;113;1960828;-75
2020/12/11 04:11:49;;;;;;;17.99;9.46;;;;;;;2.55;70.27;99634.62;353259;115;1964001;-73
2020/12/11 04:12:56;;;;;;;19.16;9.38;;;;;;;2.49;70.50;99636.08;348837;114;1961970;-74
2020/12/11 04:14:03;;;;;;;17.42;8.49;;;;;;;2.48;70.56;99638.88;348460;115;1961975;-75
2020/12/11 04:15:09;;;;;;;18.03;9.19;;;;;;;2.49;70.58;99632.55;353827;112;1961998;-74
2020/12/11 04:16:16;;;;;;;17.89;9.28;;;;;;;2.51;70.60;99636.73;350487;113;1962101;-74
2020/12/11 04:17:22;;;;;;;20.24;9.03;;;;;;;2.53;70.35;99637.42;299572;114;2238902;-74
2020/12/11 04:18:28;;;;;;;17.28;8.93;;;;;;;2.56;70.27;99634.44;361481;109;1962984;-73
2020/12/11 04:19:33;;;;;;;18.15;8.83;;;;;;;2.54;70.12;99641.78;361596;109;1961988;-74
2020/12/11 04:20:39;;;;;;;16.99;9.13;;;;;;;2.57;69.93;99638.80;362871;109;1961941;-74
2020/12/11 04:21:50;;;;;;;22.89;10.32;;;;;;;2.54;69.91;99643.59;362745;111;1963995;-74
2020/12/11 04:22:56;;;;;;;18.12;10.21;;;;;;;2.55;69.88;99637.28;313627;112;2799959;-75
2020/12/11 04:24:01;;;;;;;20.71;10.51;;;;;;;2.47;70.08;99648.72;334112;112;1961997;-73
2020/12/11 04:25:07;;;;;;;20.06;10.23;;;;;;;2.42;70.04;99643.01;354059;112;1961956;-74
2020/12/11 04:26:13;;;;;;;19.74;9.75;;;;;;;2.27;70.34;99640.04;353575;114;1962054;-74
2020/12/11 04:27:19;;;;;;;19.90;10.02;;;;;;;2.24;70.20;99639.52;355337;113;1961889;-74
2020/12/11 04:28:25;;;;;;;18.74;9.34;;;;;;;2.17;70.37;99645.47;320888;116;2508964;-74
2020/12/11 04:29:30;;;;;;;19.95;9.68;;;;;;;1.85;70.46;99589.19;331702;112;1961967;-75
2020/12/11 04:30:36;;;;;;;20.04;9.88;;;;;;;2.15;70.62;99641.28;347051;114;1962013;-76
2020/12/11 04:31:42;;;;;;;17.38;8.86;;;;;;;2.16;70.62;99637.61;353221;112;1961990;-76
2020/12/11 04:32:49;;;;;;;17.70;8.81;;;;;;;2.15;70.68;99633.28;353055;112;1963010;-75
2020/12/11 04:33:54;;;;;;;19.40;9.94;;;;;;;2.15;70.62;99633.28;326791;114;1961885;-77
2020/12/11 04:35:00;;;;;;;20.59;8.98;;;;;;;2.14;70.52;99636.92;351706;114;1962026;-75
2020/12/11 04:36:05;;;;;;;19.04;9.38;;;;;;;2.15;70.56;99638.61;346477;117;1962010;-75
2020/12/11 04:37:23;;;;;;;18.66;9.42;;;;;;;2.17;70.47;99628.62;359791;113;1962020;-76
2020/12/11 04:38:29;;;;;;;17.97;9.58;;;;;;;2.17;70.42;99640.14;337192;112;1963987;-75
2020/12/11 04:39:34;;;;;;;19.34;9.64;;;;;;;2.20;70.41;99637.16;351700;113;1961984;-74
2020/12/11 04:40:41;;;;;;;19.52;8.99;;;;;;;2.18;70.45;99638.30;343929;118;1961024;-75
2020/12/11 04:41:49;;;;;;;17.42;9.78;;;;;;;2.12;70.60;99636.27;307475;118;2650916;-73
2020/12/11 04:42:55;;;;;;;20.33;9.47;;;;;;;2.12;70.75;99639.75;351178;113;1961985;-74
2020/12/11 04:44:01;;;;;;;18.55;10.16;;;;;;;2.17;70.61;99632.14;348466;114;1962948;-74
2020/12/11 04:45:07;;;;;;;17.97;8.89;;;;;;;2.22;70.29;99631.66;334750;116;2237966;-74
2020/12/11 04:46:13;;;;;;;18.43;8.65;;;;;;;2.23;70.07;99635.19;350700;114;1962059;-74
2020/12/11 04:47:21;;;;;;;19.69;8.98;;;;;;;2.20;69.87;99637.16;356445;112;1961996;-74
2020/12/11 04:48:27;;;;;;;20.38;9.64;;;;;;;2.25;69.63;99636.72;309194;114;2159752;-74
2020/12/11 04:49:35;;;;;;;17.53;9.63;;;;;;;2.24;69.55;99632.35;354319;112;1961950;-74
2020/12/11 04:50:43;;;;;;;19.60;9.32;;;;;;;2.18;69.71;99643.63;345480;111;1962089;-74
2020/12/11 04:51:51;;;;;;;22.88;11.18;;;;;;;2.14;69.60;99643.11;356992;111;1963963;-75
2020/12/11 04:52:58;;;;;;;18.81;9.45;;;;;;;2.00;69.74;99640.96;352694;110;1961747;-74
2020/12/11 04:54:04;;;;;;;22.99;11.12;;;;;;;1.91;69.95;99650.70;293786;117;2888949;-74
2020/12/11 04:55:17;;;;;;;23.40;10.84;;;;;;;1.73;70.64;99653.33;324545;116;1961960;-74
2020/12/11 04:56:24;;;;;;;20.38;10.37;;;;;;;1.66;70.50;99664.73;306021;119;1979591;-74
2020/12/11 04:57:32;;;;;;;22.14;10.61;;;;;;;1.56;71.19;99666.60;340608;117;1964039;-74
2020/12/11 04:58:42;;;;;;;17.76;9.52;;;;;;;1.50;71.38;99652.89;319483;117;2388015;-74
2020/12/11 04:59:50;;;;;;;19.04;10.01;;;;;;;1.45;72.10;99668.47;311340;119;2565977;-74
2020/12/11 05:01:03;;;;;;;19.28;9.76;;;;;;;1.47;72.07;99665.67;335575;119;1961938;-75
2020/12/11 05:02:11;;;;;;;20.57;10.84;;;;;;;1.50;72.20;99668.86;343151;116;1961870;-74
2020/12/11 05:03:17;;;;;;;19.68;9.74;;;;;;;1.59;72.01;99663.64;313084;116;2237847;-75